createdAt,value
2018-08-03T00:03:57.269Z,99.90
2018-08-03T00:06:26.333Z,99.90
2018-08-03T00:08:54.868Z,99.90
2018-08-03T00:11:23.453Z,99.90
2018-08-03T00:13:52.153Z,99.90
2018-08-03T00:16:21.405Z,99.90
2018-08-03T00:18:50.852Z,99.90
2018-08-03T00:21:19.966Z,99.90
2018-08-03T00:23:48.521Z,99.90
2018-08-03T00:26:17.053Z,99.90
2018-08-03T00:31:14.658Z,99.90
2018-08-03T00:33:43.247Z,99.90
2018-08-03T00:36:11.848Z,99.90
2018-08-03T00:38:40.405Z,99.90
2018-08-03T00:41:08.950Z,99.90
2018-08-03T00:43:37.545Z,99.90
2018-08-03T00:46:06.723Z,99.90
2018-08-03T00:48:35.309Z,99.90
2018-08-03T00:51:03.896Z,99.90
2018-08-03T00:53:32.464Z,99.90
2018-08-03T00:56:01.573Z,99.90
2018-08-03T00:58:30.140Z,99.90
2018-08-03T01:00:59.761Z,99.90
2018-08-03T01:03:28.322Z,99.90
2018-08-03T01:05:56.829Z,99.90
2018-08-03T01:08:25.409Z,99.90
2018-08-03T01:10:54.709Z,99.90
2018-08-03T01:13:23.256Z,99.90
2018-08-03T01:29:38.386Z,99.90
2018-08-03T01:32:06.917Z,99.90
2018-08-03T01:34:35.446Z,99.90
2018-08-03T01:37:03.982Z,99.90
2018-08-03T01:39:32.493Z,99.90
2018-08-03T01:42:01.057Z,99.90
2018-08-03T01:44:29.593Z,99.90
2018-08-03T01:51:54.728Z,99.90
2018-08-03T01:54:23.279Z,99.90
2018-08-03T01:56:51.797Z,99.90
2018-08-03T01:59:20.352Z,99.90
2018-08-03T02:01:48.834Z,99.90
2018-08-03T02:04:17.376Z,99.90
2018-08-03T02:06:45.889Z,99.90
2018-08-03T02:09:14.408Z,99.90
2018-08-03T02:11:42.933Z,99.90
2018-08-03T02:14:11.464Z,99.90
2018-08-03T02:16:39.993Z,99.90
2018-08-03T02:19:08.809Z,99.90
2018-08-03T02:21:37.317Z,99.90
2018-08-03T02:24:05.897Z,99.90
2018-08-03T02:26:34.435Z,99.90
2018-08-03T02:29:03.017Z,99.90
2018-08-03T02:31:31.546Z,99.90
2018-08-03T02:34:00.331Z,99.90
2018-08-03T02:36:29.836Z,99.90
2018-08-03T02:38:58.897Z,99.90
2018-08-03T02:41:27.413Z,99.90
2018-08-03T02:43:55.967Z,99.90
2018-08-03T02:46:24.481Z,99.90
2018-08-03T02:48:53.553Z,99.90
2018-08-03T02:51:22.739Z,99.90
2018-08-03T02:53:51.277Z,99.90
2018-08-03T02:56:19.830Z,99.90
2018-08-03T02:58:48.423Z,99.90
2018-08-03T03:01:17.585Z,99.90
2018-08-03T03:03:46.152Z,99.90
2018-08-03T03:06:14.709Z,99.90
2018-08-03T03:08:43.321Z,99.90
2018-08-03T03:11:11.865Z,99.90
2018-08-03T03:13:40.435Z,99.90
2018-08-03T03:16:09.636Z,99.90
2018-08-03T03:18:38.232Z,99.90
2018-08-03T03:21:07.860Z,99.90
2018-08-03T03:23:36.427Z,99.90
2018-08-03T03:26:05.732Z,99.90
2018-08-03T03:28:35.062Z,99.90
2018-08-03T03:31:03.613Z,99.90
2018-08-03T03:33:32.224Z,99.90
2018-08-03T03:36:02.052Z,99.90
2018-08-03T03:38:30.625Z,99.90
2018-08-03T03:40:59.208Z,99.90
2018-08-03T03:43:27.793Z,99.90
2018-08-03T03:45:57.067Z,99.90
2018-08-03T03:48:25.664Z,99.90
2018-08-03T03:50:54.227Z,99.90
2018-08-03T03:53:23.478Z,99.90
2018-08-03T03:55:56.313Z,99.90
2018-08-03T03:58:25.662Z,99.90
2018-08-03T04:00:54.201Z,99.90
2018-08-03T04:03:23.465Z,99.90
2018-08-03T04:05:52.060Z,99.90
2018-08-03T04:08:21.118Z,99.90
2018-08-03T04:10:49.965Z,99.90
2018-08-03T04:13:18.544Z,99.90
2018-08-03T04:15:47.128Z,99.90
2018-08-03T04:18:21.824Z,99.90
2018-08-03T04:20:52.285Z,99.90
2018-08-03T04:23:21.040Z,99.90
2018-08-03T04:25:49.666Z,99.90
2018-08-03T04:28:19.312Z,99.90
2018-08-03T04:30:47.936Z,99.90
2018-08-03T04:33:17.431Z,99.90
2018-08-03T04:35:45.973Z,99.90
2018-08-03T04:40:44.729Z,99.90
2018-08-03T04:43:13.901Z,99.90
2018-08-03T04:45:42.432Z,99.90
2018-08-03T04:48:11.445Z,99.90
2018-08-03T04:50:40.087Z,99.90
2018-08-03T04:53:09.922Z,99.90
2018-08-03T04:55:38.548Z,99.90
2018-08-03T04:58:07.071Z,99.90
2018-08-03T05:00:35.653Z,99.90
2018-08-03T05:03:04.198Z,99.90
2018-08-03T05:05:32.782Z,99.90
2018-08-03T05:08:01.356Z,99.90
2018-08-03T05:10:29.949Z,99.90
2018-08-03T05:12:58.489Z,99.90
2018-08-03T05:15:27.090Z,99.90
2018-08-03T05:17:55.653Z,99.90
2018-08-03T05:20:24.289Z,99.90
2018-08-03T05:25:21.182Z,99.90
2018-08-03T05:27:49.745Z,99.90
2018-08-03T05:30:18.375Z,99.90
2018-08-03T05:32:46.933Z,99.90
2018-08-03T05:35:15.518Z,99.90
2018-08-03T05:37:44.073Z,99.90
2018-08-03T05:40:12.953Z,99.90
2018-08-03T05:42:41.489Z,99.90
2018-08-03T05:45:10.433Z,99.90
2018-08-03T05:50:07.612Z,99.90
2018-08-03T05:52:36.218Z,99.90
2018-08-03T05:55:04.966Z,99.90
2018-08-03T05:57:33.509Z,99.90
2018-08-03T06:00:02.074Z,99.90
2018-08-03T06:02:30.704Z,99.90
2018-08-03T06:04:59.274Z,99.90
2018-08-03T06:07:28.757Z,99.90
2018-08-03T06:09:57.308Z,99.90
2018-08-03T06:14:54.194Z,99.90
2018-08-03T06:17:22.693Z,99.90
2018-08-03T06:19:51.277Z,99.90
2018-08-03T06:22:19.834Z,99.90
2018-08-03T06:24:48.436Z,99.90
2018-08-03T06:27:16.985Z,99.90
2018-08-03T06:32:13.782Z,99.90
2018-08-03T06:34:42.377Z,99.90
2018-08-03T06:37:10.931Z,99.90
2018-08-03T06:39:39.544Z,99.90
2018-08-03T06:44:36.337Z,99.90
2018-08-03T06:47:04.925Z,99.90
2018-08-03T06:49:33.542Z,99.90
2018-08-03T06:52:02.255Z,99.90
2018-08-03T06:54:30.838Z,99.90
2018-08-03T06:56:59.476Z,99.90
2018-08-03T06:59:28.055Z,99.90
2018-08-03T07:01:56.753Z,99.90
2018-08-03T07:04:25.324Z,99.90
2018-08-03T07:06:53.936Z,99.90
2018-08-03T07:09:22.588Z,99.90
2018-08-03T07:11:51.168Z,99.90
2018-08-03T07:14:19.753Z,99.90
2018-08-03T07:16:48.353Z,99.90
2018-08-03T07:19:16.909Z,99.90
2018-08-03T07:21:45.492Z,99.90
2018-08-03T07:24:14.073Z,99.90
2018-08-03T07:26:42.724Z,99.90
2018-08-03T07:29:11.279Z,99.90
2018-08-03T07:34:08.176Z,99.90
2018-08-03T07:36:36.790Z,99.90
2018-08-03T07:41:34.894Z,99.90
2018-08-03T07:44:03.552Z,99.90
2018-08-03T07:46:32.135Z,99.90
2018-08-03T07:49:00.748Z,99.90
2018-08-03T07:51:29.433Z,99.90
2018-08-03T07:53:57.992Z,99.90
2018-08-03T07:56:27.203Z,99.90
2018-08-03T07:58:55.774Z,99.90
2018-08-03T08:01:24.554Z,99.90
2018-08-03T08:03:53.849Z,99.90
2018-08-03T08:06:23.121Z,99.90
2018-08-03T08:08:52.034Z,99.90
2018-08-03T08:11:21.414Z,99.90
2018-08-03T08:13:50.042Z,99.90
2018-08-03T08:16:25.154Z,99.90
2018-08-03T08:18:54.367Z,99.90
2018-08-03T08:21:22.956Z,99.90
2018-08-03T08:23:52.144Z,99.90
2018-08-03T08:26:20.961Z,99.90
2018-08-03T08:28:49.540Z,99.90
2018-08-03T08:31:18.134Z,99.90
2018-08-03T08:33:46.713Z,99.90
2018-08-03T08:36:15.326Z,99.90
2018-08-03T08:38:43.952Z,99.90
2018-08-03T08:41:13.580Z,99.90
2018-08-03T08:43:42.882Z,99.90
2018-08-03T08:46:12.290Z,99.90
2018-08-03T08:48:40.846Z,99.90
2018-08-03T08:51:09.553Z,99.90
2018-08-03T08:53:38.885Z,99.90
2018-08-03T08:56:07.514Z,99.90
2018-08-03T08:58:36.056Z,99.80
2018-08-03T09:01:05.314Z,99.90
2018-08-03T09:03:34.401Z,99.90
2018-08-03T09:06:02.953Z,99.90
2018-08-03T09:08:31.510Z,99.90
2018-08-03T09:11:00.192Z,99.10
2018-08-03T09:13:29.488Z,98.90
2018-08-03T09:15:58.076Z,99.00
2018-08-03T09:18:26.689Z,98.50
2018-08-03T09:20:55.757Z,98.50
2018-08-03T09:23:24.669Z,98.30
2018-08-03T09:25:55.578Z,98.40
2018-08-03T09:28:24.308Z,98.00
2018-08-03T09:30:52.927Z,98.10
2018-08-03T09:33:22.449Z,97.10
2018-08-03T09:35:51.096Z,98.10
2018-08-03T09:40:47.874Z,96.90
2018-08-03T09:43:16.685Z,96.90
2018-08-03T09:45:45.301Z,96.80
2018-08-03T09:48:14.593Z,96.50
2018-08-03T09:50:44.138Z,96.00
2018-08-03T09:53:12.809Z,95.30
2018-08-03T09:55:41.349Z,95.70
2018-08-03T09:58:09.925Z,95.80
2018-08-03T10:00:43.776Z,95.60
2018-08-03T10:03:12.385Z,94.20
2018-08-03T10:08:09.173Z,94.00
2018-08-03T10:10:37.728Z,94.10
2018-08-03T10:13:06.309Z,94.00
2018-08-03T10:18:03.073Z,94.00
2018-08-03T10:25:28.152Z,93.60
2018-08-03T10:27:56.740Z,93.10
2018-08-03T10:30:25.962Z,92.90
2018-08-03T10:32:54.565Z,91.70
2018-08-03T10:35:24.237Z,91.70
2018-08-03T10:37:52.846Z,91.70
2018-08-03T10:40:21.380Z,91.80
2018-08-03T10:42:49.992Z,91.50
2018-08-03T10:45:18.578Z,91.40
2018-08-03T10:47:47.157Z,90.70
2018-08-03T10:50:16.916Z,90.70
2018-08-03T10:57:42.353Z,89.90
2018-08-03T11:00:16.375Z,89.70
2018-08-03T11:05:13.181Z,89.40
2018-08-03T11:07:41.764Z,89.20
2018-08-03T11:10:10.338Z,89.30
2018-08-03T11:12:38.905Z,89.20
2018-08-03T11:15:07.461Z,89.30
2018-08-03T11:17:36.681Z,89.10
2018-08-03T11:20:05.402Z,88.30
2018-08-03T11:22:34.033Z,88.70
2018-08-03T11:25:02.966Z,88.00
2018-08-03T11:27:31.536Z,88.10
2018-08-03T11:30:00.187Z,87.20
2018-08-03T11:32:29.536Z,84.50
2018-08-03T11:34:58.084Z,84.90
2018-08-03T11:39:55.661Z,86.30
2018-08-03T11:42:24.264Z,86.10
2018-08-03T11:44:52.824Z,86.90
2018-08-03T11:47:21.453Z,87.80
2018-08-03T11:49:50.071Z,85.00
2018-08-03T11:52:18.704Z,84.20
2018-08-03T11:54:47.252Z,83.80
2018-08-03T11:57:15.845Z,81.20
2018-08-03T11:59:44.404Z,80.70
2018-08-03T12:02:13.005Z,81.70
2018-08-03T12:04:42.501Z,82.40
2018-08-03T12:07:11.385Z,81.50
2018-08-03T12:09:39.966Z,82.10
2018-08-03T12:12:08.873Z,81.40
2018-08-03T12:14:38.030Z,81.50
2018-08-03T12:17:06.654Z,79.80
2018-08-03T12:19:35.249Z,80.50
2018-08-03T12:22:04.625Z,79.60
2018-08-03T12:24:33.335Z,80.50
2018-08-03T12:27:02.577Z,79.20
2018-08-03T12:29:31.385Z,79.00
2018-08-03T12:32:00.157Z,80.30
2018-08-03T12:34:28.801Z,80.20
2018-08-03T12:36:57.473Z,78.20
2018-08-03T12:39:26.113Z,77.90
2018-08-03T12:41:54.694Z,77.70
2018-08-03T12:44:23.517Z,77.30
2018-08-03T12:46:52.104Z,76.50
2018-08-03T12:49:20.891Z,76.30
2018-08-03T12:51:49.474Z,76.80
2018-08-03T12:54:18.037Z,75.90
2018-08-03T12:56:46.640Z,75.80
2018-08-03T12:59:15.735Z,75.20
2018-08-03T13:01:45.178Z,74.60
2018-08-03T13:04:13.935Z,74.00
2018-08-03T13:06:42.616Z,75.00
2018-08-03T13:09:11.284Z,74.20
2018-08-03T13:11:40.097Z,74.20
2018-08-03T13:14:08.897Z,72.80
2018-08-03T13:16:37.785Z,72.40
2018-08-03T13:19:07.505Z,73.30
2018-08-03T13:21:38.521Z,71.60
2018-08-03T13:24:07.542Z,71.60
2018-08-03T13:26:37.181Z,71.40
2018-08-03T13:31:34.122Z,70.90
2018-08-03T13:34:02.741Z,71.10
2018-08-03T13:36:32.581Z,70.60
2018-08-03T13:39:01.750Z,70.00
2018-08-03T13:41:30.372Z,70.80
2018-08-03T13:43:59.471Z,69.80
2018-08-03T13:46:28.512Z,70.80
2018-08-03T13:51:25.301Z,69.50
2018-08-03T13:53:53.853Z,69.50
2018-08-03T13:56:22.389Z,69.60
2018-08-03T13:58:50.933Z,69.10
2018-08-03T14:01:30.842Z,69.40
2018-08-03T14:03:59.446Z,70.50
2018-08-03T14:06:27.978Z,69.70
2018-08-03T14:08:56.549Z,69.00
2018-08-03T14:11:25.108Z,69.40
2018-08-03T14:18:50.548Z,68.60
2018-08-03T14:21:19.785Z,68.00
2018-08-03T14:23:48.352Z,69.10
2018-08-03T14:26:16.903Z,68.30
2018-08-03T14:28:46.200Z,68.30
2018-08-03T14:31:15.020Z,67.90
2018-08-03T14:33:43.962Z,68.90
2018-08-03T14:36:12.964Z,69.50
2018-08-03T14:38:41.997Z,70.70
2018-08-03T14:41:10.538Z,69.30
2018-08-03T14:43:39.097Z,68.10
2018-08-03T14:46:07.706Z,68.40
2018-08-03T14:48:36.277Z,67.70
2018-08-03T14:51:04.945Z,68.60
2018-08-03T14:53:33.545Z,68.40
2018-08-03T14:56:02.100Z,68.10
2018-08-03T14:58:30.653Z,68.00
2018-08-03T15:00:59.182Z,68.00
2018-08-03T15:03:27.729Z,67.50
2018-08-03T15:08:24.453Z,69.30
2018-08-03T15:10:53.026Z,69.30
2018-08-03T15:13:21.576Z,70.50
2018-08-03T15:15:50.125Z,68.90
2018-08-03T15:18:18.680Z,68.80
2018-08-03T15:20:47.289Z,68.80
2018-08-03T15:23:15.866Z,68.20
2018-08-03T15:25:44.420Z,67.60
2018-08-03T15:28:12.973Z,67.80
2018-08-03T15:33:09.744Z,66.40
2018-08-03T15:35:38.338Z,67.00
2018-08-03T15:38:07.141Z,68.90
2018-08-03T15:40:35.732Z,66.90
2018-08-03T15:43:04.265Z,66.70
2018-08-03T15:45:32.893Z,66.80
2018-08-03T15:48:02.494Z,67.00
2018-08-03T15:50:31.125Z,66.90
2018-08-03T15:53:00.258Z,66.40
2018-08-03T15:55:28.835Z,66.40
2018-08-03T15:57:57.379Z,66.10
2018-08-03T16:00:25.960Z,65.70
2018-08-03T16:02:54.567Z,66.70
2018-08-03T16:05:23.198Z,65.30
2018-08-03T16:07:51.773Z,65.30
2018-08-03T16:10:20.366Z,65.60
2018-08-03T16:12:48.985Z,66.00
2018-08-03T16:15:18.261Z,66.90
2018-08-03T16:17:46.940Z,65.80
2018-08-03T16:20:15.517Z,66.20
2018-08-03T16:22:44.648Z,66.60
2018-08-03T16:25:13.249Z,66.00
2018-08-03T16:27:41.886Z,66.40
2018-08-03T16:30:11.133Z,65.50
2018-08-03T16:32:40.371Z,65.90
2018-08-03T16:35:09.832Z,66.60
2018-08-03T16:37:38.374Z,66.20
2018-08-03T16:40:08.231Z,66.80
2018-08-03T16:42:36.972Z,65.70
2018-08-03T16:45:07.292Z,66.60
2018-08-03T16:47:35.981Z,67.20
2018-08-03T16:50:05.264Z,67.60
2018-08-03T16:52:33.801Z,67.20
2018-08-03T16:55:02.385Z,67.20
2018-08-03T16:57:30.905Z,66.80
2018-08-03T17:02:28.183Z,67.90
2018-08-03T17:04:56.786Z,67.30
2018-08-03T17:07:25.984Z,68.10
2018-08-03T17:09:54.556Z,67.50
2018-08-03T17:12:23.638Z,68.70
2018-08-03T17:14:52.176Z,69.10
2018-08-03T17:17:20.729Z,68.20
2018-08-03T17:19:50.115Z,68.80
2018-08-03T17:27:15.603Z,68.20
2018-08-03T17:29:44.158Z,68.30
2018-08-03T17:32:12.673Z,70.80
2018-08-03T17:34:41.921Z,72.90
2018-08-03T17:42:06.872Z,80.60
2018-08-03T17:44:35.457Z,83.30
2018-08-03T17:47:04.616Z,85.20
2018-08-03T17:49:33.656Z,86.10
2018-08-03T17:52:02.213Z,87.20
2018-08-03T17:56:59.092Z,89.80
2018-08-03T17:59:28.917Z,90.30
2018-08-03T18:01:57.481Z,90.60
2018-08-03T18:04:26.022Z,91.10
2018-08-03T18:06:54.641Z,91.30
2018-08-03T18:11:51.457Z,92.20
2018-08-03T18:14:21.271Z,92.80
2018-08-03T18:16:49.865Z,93.00
2018-08-03T18:19:18.410Z,93.80
2018-08-03T18:21:47.037Z,94.00
2018-08-03T18:24:15.569Z,94.50
2018-08-03T18:26:44.914Z,94.80
2018-08-03T18:29:13.507Z,95.20
2018-08-03T18:31:42.594Z,95.60
2018-08-03T18:34:11.129Z,95.90
2018-08-03T18:36:39.713Z,96.30
2018-08-03T18:39:10.985Z,96.70
2018-08-03T18:41:39.610Z,96.80
2018-08-03T18:44:09.055Z,96.80
2018-08-03T18:46:37.688Z,96.90
2018-08-03T18:49:06.230Z,97.90
2018-08-03T18:51:34.939Z,97.90
2018-08-03T18:54:03.626Z,98.50
2018-08-03T18:56:33.123Z,98.80
2018-08-03T18:59:02.270Z,99.00
2018-08-03T19:01:30.861Z,99.40
2018-08-03T19:06:27.669Z,99.90
2018-08-03T19:08:56.264Z,99.90
2018-08-03T19:11:25.227Z,99.90
2018-08-03T19:13:53.810Z,99.90
2018-08-03T19:16:22.400Z,99.90
2018-08-03T19:18:50.957Z,99.90
2018-08-03T19:23:48.240Z,99.90
2018-08-03T19:26:18.001Z,99.90
2018-08-03T19:28:46.574Z,99.90
2018-08-03T19:31:15.765Z,99.90
2018-08-03T19:33:44.312Z,99.90
2018-08-03T19:36:14.187Z,99.90
2018-08-03T19:38:43.532Z,99.90
2018-08-03T19:41:12.337Z,99.90
2018-08-03T19:43:40.881Z,99.90
2018-08-03T19:46:09.481Z,99.90
2018-08-03T19:51:08.062Z,99.90
2018-08-03T19:53:37.329Z,99.90
2018-08-03T19:56:06.376Z,99.90
2018-08-03T20:01:03.228Z,99.90
2018-08-03T20:03:31.881Z,99.90
2018-08-03T20:06:00.618Z,99.90
2018-08-03T20:10:58.626Z,99.90
2018-08-03T20:13:27.244Z,99.90
2018-08-03T20:15:55.917Z,99.90
2018-08-03T20:18:25.071Z,99.90
2018-08-03T20:20:53.817Z,99.90
2018-08-03T20:23:22.420Z,99.90
2018-08-03T20:25:51.072Z,99.90
2018-08-03T20:28:19.756Z,99.90
2018-08-03T20:30:48.541Z,99.90
2018-08-03T20:33:17.395Z,99.90
2018-08-03T20:38:14.292Z,99.90
2018-08-03T20:40:43.150Z,99.90
2018-08-03T20:45:41.029Z,99.90
2018-08-03T20:50:38.801Z,99.90
2018-08-03T20:53:07.384Z,99.90
2018-08-03T20:55:35.877Z,99.90
2018-08-03T21:00:32.656Z,99.90
2018-08-03T21:03:02.029Z,99.90
2018-08-03T21:05:31.229Z,99.90
2018-08-03T21:07:59.790Z,99.90
2018-08-03T21:10:28.372Z,99.90
2018-08-03T21:12:57.162Z,99.90
2018-08-03T21:15:25.822Z,99.90
2018-08-03T21:17:54.409Z,99.90
2018-08-03T21:20:22.950Z,99.90
2018-08-03T21:25:20.381Z,99.90
2018-08-03T21:27:48.928Z,99.90
2018-08-03T21:30:17.499Z,99.90
2018-08-03T21:32:46.058Z,99.90
2018-08-03T21:35:15.475Z,99.90
2018-08-03T21:40:12.837Z,99.90
2018-08-03T21:42:41.378Z,99.90
2018-08-03T21:45:09.907Z,99.90
2018-08-03T21:47:38.954Z,99.90
2018-08-03T21:50:07.585Z,99.90
2018-08-03T21:52:37.140Z,99.90
2018-08-03T21:55:05.812Z,99.90
2018-08-03T21:57:34.952Z,99.90
2018-08-03T22:00:04.133Z,99.90
2018-08-03T22:02:32.731Z,99.90
2018-08-03T22:05:01.296Z,99.90
2018-08-03T22:07:29.914Z,99.90
2018-08-03T22:09:58.480Z,99.90
2018-08-03T22:12:27.070Z,99.90
2018-08-03T22:14:55.616Z,99.90
2018-08-03T22:17:25.218Z,99.90
2018-08-03T22:19:53.764Z,99.90
2018-08-03T22:22:22.348Z,99.90
2018-08-03T22:27:19.313Z,99.90
2018-08-03T22:29:47.946Z,99.90
2018-08-03T22:32:16.550Z,99.90
2018-08-03T22:34:45.570Z,99.90
2018-08-03T22:37:14.954Z,99.90
2018-08-03T22:39:44.037Z,99.90
2018-08-03T22:42:12.633Z,99.90
2018-08-03T22:44:41.222Z,99.90
2018-08-03T22:47:09.795Z,99.90
2018-08-03T22:49:38.858Z,99.90
2018-08-03T22:52:08.380Z,99.90
2018-08-03T22:54:37.654Z,99.90
2018-08-03T22:57:06.236Z,99.90
2018-08-03T22:59:34.791Z,99.90
2018-08-03T23:02:03.460Z,99.90
2018-08-03T23:04:32.035Z,99.90
2018-08-03T23:07:00.647Z,99.90
2018-08-03T23:09:29.191Z,99.90
2018-08-03T23:11:57.805Z,99.90
2018-08-03T23:14:27.139Z,99.90
2018-08-03T23:16:55.740Z,99.90
2018-08-03T23:19:24.876Z,99.90
2018-08-03T23:21:53.476Z,99.90
2018-08-03T23:24:23.117Z,99.90
2018-08-03T23:26:51.870Z,99.90
2018-08-03T23:29:21.066Z,99.90
2018-08-03T23:31:50.729Z,99.90
2018-08-03T23:34:19.309Z,99.90
2018-08-03T23:36:47.882Z,99.90
2018-08-03T23:41:45.610Z,99.90
2018-08-03T23:44:14.420Z,99.90
2018-08-03T23:46:43.763Z,99.90
2018-08-03T23:51:40.557Z,99.90
2018-08-03T23:54:09.755Z,99.90
2018-08-03T23:56:38.874Z,99.90
2018-08-03T23:59:08.254Z,99.90
